createdAt,value
2022-10-21T00:02:10.850Z,79.29
2022-10-21T00:04:42.546Z,79.03
2022-10-21T00:07:14.201Z,79.26
2022-10-21T00:09:45.916Z,79.35
2022-10-21T00:12:17.479Z,79.71
2022-10-21T00:14:51.562Z,79.54
2022-10-21T00:17:25.617Z,79.89
2022-10-21T00:19:57.301Z,80.35
2022-10-21T00:22:28.821Z,80.34
2022-10-21T00:25:00.467Z,80.14
2022-10-21T00:27:32.273Z,80.10
2022-10-21T00:30:07.474Z,81.20
2022-10-21T00:32:39.920Z,80.80
2022-10-21T00:35:10.464Z,80.45
2022-10-21T00:37:42.099Z,80.79
2022-10-21T00:40:14.339Z,80.81
2022-10-21T00:42:46.963Z,80.78
2022-10-21T00:45:23.292Z,80.57
2022-10-21T00:48:00.925Z,80.96
2022-10-21T00:50:38.853Z,80.81
2022-10-21T00:53:15.774Z,80.42
2022-10-21T00:55:51.651Z,80.07
2022-10-21T00:58:26.335Z,80.56
2022-10-21T01:00:59.835Z,80.84
2022-10-21T01:03:33.170Z,80.54
2022-10-21T01:06:08.199Z,80.08
2022-10-21T01:08:40.179Z,80.71
2022-10-21T01:11:15.694Z,80.61
2022-10-21T01:13:59.471Z,80.99
2022-10-21T01:16:44.345Z,81.02
2022-10-21T01:19:42.604Z,80.50
2022-10-21T01:22:30.848Z,81.01
2022-10-21T01:25:25.040Z,81.38
2022-10-21T01:28:05.557Z,81.27
2022-10-21T01:30:42.778Z,81.14
2022-10-21T01:33:42.934Z,81.30
2022-10-21T01:36:26.017Z,81.18
2022-10-21T01:39:08.975Z,81.31
2022-10-21T01:41:46.060Z,81.18
2022-10-21T01:44:23.885Z,80.99
2022-10-21T01:47:00.451Z,81.63
2022-10-21T01:49:37.337Z,81.44
2022-10-21T01:52:09.869Z,81.87
2022-10-21T01:54:45.646Z,82.13
2022-10-21T01:57:21.931Z,82.16
2022-10-21T01:59:55.498Z,82.17
2022-10-21T02:02:33.216Z,81.96
2022-10-21T02:05:13.629Z,82.09
2022-10-21T02:07:45.311Z,81.96
2022-10-21T02:10:19.221Z,81.89
2022-10-21T02:12:55.977Z,81.73
2022-10-21T02:15:31.042Z,81.84
2022-10-21T02:18:08.324Z,81.27
2022-10-21T02:20:43.541Z,81.26
2022-10-21T02:23:18.166Z,81.25
2022-10-21T02:25:51.851Z,81.18
2022-10-21T02:28:23.726Z,81.63
2022-10-21T02:31:06.375Z,82.26
2022-10-21T02:33:52.058Z,81.85
2022-10-21T02:36:31.385Z,81.69
2022-10-21T02:39:08.349Z,81.90
2022-10-21T02:41:41.681Z,81.78
2022-10-21T02:44:14.116Z,81.72
2022-10-21T02:46:48.224Z,81.65
2022-10-21T02:49:20.088Z,82.83
2022-10-21T02:51:51.761Z,82.30
2022-10-21T02:54:23.478Z,81.57
2022-10-21T02:56:55.101Z,81.57
2022-10-21T02:59:26.906Z,81.50
2022-10-21T03:01:58.486Z,81.79
2022-10-21T03:04:30.146Z,82.11
2022-10-21T03:07:01.860Z,81.83
2022-10-21T03:09:33.449Z,81.98
2022-10-21T03:12:05.101Z,81.98
2022-10-21T03:14:36.971Z,81.97
2022-10-21T03:17:08.566Z,81.73
2022-10-21T03:19:40.183Z,81.66
2022-10-21T03:22:11.942Z,82.91
2022-10-21T03:24:43.573Z,82.73
2022-10-21T03:27:15.957Z,81.80
2022-10-21T03:29:50.257Z,81.83
2022-10-21T03:32:21.849Z,81.90
2022-10-21T03:34:53.733Z,82.20
2022-10-21T03:37:25.420Z,82.11
2022-10-21T03:39:57.243Z,81.99
2022-10-21T03:42:29.753Z,81.78
2022-10-21T03:45:02.507Z,81.98
2022-10-21T03:47:34.229Z,81.85
2022-10-21T03:50:11.868Z,81.68
2022-10-21T03:52:45.919Z,81.86
2022-10-21T03:55:20.674Z,81.90
2022-10-21T03:57:53.159Z,81.85
2022-10-21T04:00:25.158Z,82.40
2022-10-21T04:02:58.867Z,82.30
2022-10-21T04:05:30.571Z,82.46
2022-10-21T04:08:02.402Z,82.13
2022-10-21T04:10:33.935Z,82.15
2022-10-21T04:13:06.335Z,81.92
2022-10-21T04:15:37.891Z,82.13
2022-10-21T04:18:09.934Z,81.90
2022-10-21T04:20:42.179Z,82.53
2022-10-21T04:23:13.717Z,82.25
2022-10-21T04:25:47.848Z,82.36
2022-10-21T04:28:19.650Z,82.14
2022-10-21T04:30:51.736Z,82.48
2022-10-21T04:33:23.485Z,82.19
2022-10-21T04:35:56.681Z,81.91
2022-10-21T04:38:28.985Z,81.87
2022-10-21T04:41:02.806Z,82.13
2022-10-21T04:43:34.337Z,82.61
2022-10-21T04:46:12.063Z,83.10
2022-10-21T04:48:46.102Z,82.50
2022-10-21T04:51:18.119Z,82.47
2022-10-21T04:53:50.081Z,81.70
2022-10-21T04:56:21.720Z,81.46
2022-10-21T04:58:53.252Z,81.09
2022-10-21T05:01:24.984Z,81.16
2022-10-21T05:03:56.706Z,80.60
2022-10-21T05:06:28.444Z,80.54
2022-10-21T05:09:00.620Z,81.41
2022-10-21T05:11:32.396Z,82.17
2022-10-21T05:14:04.025Z,82.48
2022-10-21T05:16:36.133Z,82.77
2022-10-21T05:19:07.938Z,82.51
2022-10-21T05:21:39.531Z,82.51
2022-10-21T05:24:11.181Z,82.42
2022-10-21T05:26:43.041Z,81.81
2022-10-21T05:29:15.162Z,81.66
2022-10-21T05:31:47.101Z,82.49
2022-10-21T05:34:19.450Z,83.50
2022-10-21T05:36:51.434Z,83.56
2022-10-21T05:39:23.026Z,83.50
2022-10-21T05:41:54.790Z,83.60
2022-10-21T05:44:26.763Z,83.56
2022-10-21T05:46:58.433Z,84.01
2022-10-21T05:49:30.110Z,84.45
2022-10-21T05:52:02.248Z,84.39
2022-10-21T05:54:34.518Z,84.11
2022-10-21T05:57:06.212Z,84.72
2022-10-21T05:59:37.898Z,84.25
2022-10-21T06:02:10.132Z,83.94
2022-10-21T06:04:44.050Z,83.53
2022-10-21T06:07:15.856Z,83.55
2022-10-21T06:09:47.636Z,83.59
2022-10-21T06:12:19.285Z,83.20
2022-10-21T06:14:51.648Z,83.60
2022-10-21T06:17:23.963Z,83.60
2022-10-21T06:19:56.058Z,83.52
2022-10-21T06:22:27.690Z,83.36
2022-10-21T06:24:59.582Z,82.83
2022-10-21T06:27:31.360Z,82.97
2022-10-21T06:30:03.062Z,82.64
2022-10-21T06:32:35.659Z,82.70
2022-10-21T06:35:07.920Z,82.59
2022-10-21T06:37:39.881Z,83.12
2022-10-21T06:40:12.990Z,83.54
2022-10-21T06:42:45.081Z,83.83
2022-10-21T06:45:17.108Z,83.96
2022-10-21T06:47:48.765Z,84.65
2022-10-21T06:50:20.739Z,85.24
2022-10-21T06:52:52.405Z,84.26
2022-10-21T06:55:24.852Z,84.00
2022-10-21T06:57:56.640Z,83.57
2022-10-21T07:03:05.140Z,82.29
2022-10-21T07:05:36.788Z,82.02
2022-10-21T07:08:10.621Z,81.92
2022-10-21T07:10:46.065Z,81.57
2022-10-21T07:13:21.110Z,81.64
2022-10-21T07:16:02.550Z,81.90
2022-10-21T07:18:37.003Z,82.22
2022-10-21T07:21:18.021Z,81.96
2022-10-21T07:23:51.324Z,82.43
2022-10-21T07:26:24.799Z,82.20
2022-10-21T07:28:58.754Z,81.84
2022-10-21T07:31:32.895Z,81.49
2022-10-21T07:34:08.186Z,81.43
2022-10-21T07:36:42.383Z,81.92
2022-10-21T07:39:16.830Z,82.69
2022-10-21T07:41:53.193Z,82.35
2022-10-21T07:44:27.478Z,82.46
2022-10-21T07:46:59.648Z,81.89
2022-10-21T07:49:31.616Z,82.21
2022-10-21T07:52:03.285Z,82.68
2022-10-21T07:54:35.035Z,81.97
2022-10-21T07:57:07.009Z,81.76
2022-10-21T07:59:39.334Z,82.14
2022-10-21T08:02:13.317Z,82.13
2022-10-21T08:04:45.154Z,82.29
2022-10-21T08:07:16.901Z,82.08
2022-10-21T08:09:48.667Z,81.99
2022-10-21T08:12:20.361Z,82.31
2022-10-21T08:14:53.049Z,82.37
2022-10-21T08:17:26.327Z,82.21
2022-10-21T08:19:58.161Z,82.13
2022-10-21T08:22:30.063Z,82.00
2022-10-21T08:25:01.876Z,81.84
2022-10-21T08:27:34.693Z,81.44
2022-10-21T08:30:07.602Z,81.48
2022-10-21T08:32:40.080Z,81.77
2022-10-21T08:35:12.733Z,81.13
2022-10-21T08:37:48.837Z,81.19
2022-10-21T08:40:21.468Z,81.44
2022-10-21T08:42:53.611Z,81.06
2022-10-21T08:45:39.244Z,81.16
2022-10-21T08:48:19.850Z,80.93
2022-10-21T08:50:53.373Z,80.65
2022-10-21T08:53:31.130Z,80.49
2022-10-21T08:56:07.914Z,80.63
2022-10-21T08:58:39.862Z,80.42
2022-10-21T09:01:24.645Z,80.47
2022-10-21T09:04:01.374Z,80.36
2022-10-21T09:06:40.554Z,80.08
2022-10-21T09:09:20.695Z,79.58
2022-10-21T09:12:07.118Z,79.57
2022-10-21T09:14:57.274Z,79.83
2022-10-21T09:17:50.507Z,79.53
2022-10-21T09:20:28.108Z,79.69
2022-10-21T09:23:08.954Z,79.40
2022-10-21T09:25:47.289Z,78.74
2022-10-21T09:28:19.021Z,78.57
2022-10-21T09:30:51.916Z,78.50
2022-10-21T09:33:24.362Z,78.02
2022-10-21T09:36:02.707Z,77.84
2022-10-21T09:38:45.961Z,78.13
2022-10-21T09:43:56.401Z,77.21
2022-10-21T09:46:28.206Z,77.00
2022-10-21T09:49:36.762Z,77.03
2022-10-21T09:51:52.690Z,77.05
2022-10-21T09:54:27.942Z,76.71
2022-10-21T09:57:05.243Z,76.43
2022-10-21T09:59:37.711Z,75.79
2022-10-21T10:02:16.344Z,75.71
2022-10-21T10:04:48.010Z,75.77
2022-10-21T10:07:34.673Z,75.37
2022-10-21T10:10:29.256Z,75.25
2022-10-21T10:13:01.419Z,74.85
2022-10-21T10:15:36.503Z,75.19
2022-10-21T10:18:23.363Z,75.02
2022-10-21T10:21:13.251Z,74.46
2022-10-21T10:23:50.530Z,74.50
2022-10-21T10:26:30.112Z,73.70
2022-10-21T10:29:09.641Z,73.61
2022-10-21T10:31:50.682Z,74.15
2022-10-21T10:34:25.387Z,74.63
2022-10-21T10:37:08.174Z,74.27
2022-10-21T10:39:44.251Z,74.77
2022-10-21T10:42:23.471Z,74.28
2022-10-21T10:44:57.880Z,74.67
2022-10-21T10:47:32.460Z,74.26
2022-10-21T10:50:04.822Z,73.98
2022-10-21T10:52:36.486Z,73.68
2022-10-21T10:55:19.717Z,73.40
2022-10-21T10:58:10.686Z,73.86
2022-10-21T11:00:46.139Z,73.53
2022-10-21T11:03:26.090Z,74.01
2022-10-21T11:06:06.849Z,74.00
2022-10-21T11:08:43.716Z,73.58
2022-10-21T11:11:21.729Z,72.92
2022-10-21T11:13:54.522Z,71.97
2022-10-21T11:16:44.867Z,70.93
2022-10-21T11:19:31.207Z,70.25
2022-10-21T11:22:13.185Z,68.77
2022-10-21T11:24:55.410Z,69.01
2022-10-21T11:27:49.915Z,69.31
2022-10-21T11:30:24.419Z,69.68
2022-10-21T11:33:11.419Z,70.40
2022-10-21T11:35:58.027Z,70.65
2022-10-21T11:38:49.780Z,70.24
2022-10-21T11:41:32.112Z,70.14
2022-10-21T11:44:16.378Z,70.01
2022-10-21T11:46:59.143Z,70.28
2022-10-21T11:49:44.705Z,69.98
2022-10-21T11:52:28.155Z,70.06
2022-10-21T11:55:12.418Z,70.04
2022-10-21T11:57:50.987Z,70.04
2022-10-21T12:00:25.166Z,69.68
2022-10-21T12:03:26.104Z,69.38
2022-10-21T12:06:03.819Z,69.23
2022-10-21T12:08:44.376Z,68.88
2022-10-21T12:11:23.433Z,68.77
2022-10-21T12:13:59.044Z,68.76
2022-10-21T12:16:34.628Z,67.27
2022-10-21T12:19:11.947Z,66.30
2022-10-21T12:21:46.735Z,65.47
2022-10-21T12:24:29.807Z,64.94
2022-10-21T12:27:11.089Z,64.87
2022-10-21T12:29:53.408Z,65.64
2022-10-21T12:32:31.209Z,65.50
2022-10-21T12:35:03.807Z,66.04
2022-10-21T12:38:22.338Z,66.61
2022-10-21T12:41:27.823Z,67.11
2022-10-21T12:44:15.839Z,67.29
2022-10-21T12:46:50.680Z,67.46
2022-10-21T12:49:26.214Z,66.83
2022-10-21T12:52:10.107Z,66.66
2022-10-21T12:54:52.344Z,66.56
2022-10-21T12:57:31.413Z,66.11
2022-10-21T13:00:32.799Z,66.37
2022-10-21T13:03:07.889Z,67.26
2022-10-21T13:06:03.552Z,67.51
2022-10-21T13:08:52.780Z,66.90
2022-10-21T13:11:38.239Z,66.74
2022-10-21T13:14:35.383Z,66.79
2022-10-21T13:17:31.689Z,66.53
2022-10-21T13:20:40.573Z,66.42
2022-10-21T13:23:32.341Z,66.81
2022-10-21T13:26:14.799Z,67.24
2022-10-21T13:29:19.771Z,67.28
2022-10-21T13:32:31.005Z,66.96
2022-10-21T13:35:08.880Z,66.82
2022-10-21T13:37:44.920Z,67.02
2022-10-21T13:40:30.619Z,67.14
2022-10-21T13:43:06.664Z,67.76
2022-10-21T13:45:44.449Z,68.88
2022-10-21T13:48:18.658Z,68.58
2022-10-21T13:50:52.000Z,68.98
2022-10-21T13:53:28.560Z,69.25
2022-10-21T13:56:03.423Z,68.84
2022-10-21T13:58:40.195Z,69.24
2022-10-21T14:01:14.462Z,69.18
2022-10-21T14:03:46.795Z,69.59
2022-10-21T14:06:30.305Z,70.13
2022-10-21T14:09:08.048Z,69.71
2022-10-21T14:11:48.701Z,69.99
2022-10-21T14:14:24.692Z,69.62
2022-10-21T14:17:00.289Z,70.43
2022-10-21T14:19:35.328Z,70.60
2022-10-21T14:22:09.847Z,70.53
2022-10-21T14:24:44.331Z,70.58
2022-10-21T14:27:20.788Z,71.42
2022-10-21T14:29:53.158Z,70.71
2022-10-21T14:32:28.128Z,70.69
2022-10-21T14:35:07.053Z,70.71
2022-10-21T14:37:45.622Z,70.97
2022-10-21T14:40:26.734Z,71.55
2022-10-21T14:42:59.557Z,71.74
2022-10-21T14:45:30.446Z,71.71
2022-10-21T14:48:17.407Z,72.38
2022-10-21T14:50:56.295Z,72.29
2022-10-21T14:53:32.679Z,72.25
2022-10-21T14:56:07.769Z,72.63
2022-10-21T14:58:41.142Z,73.02
2022-10-21T15:01:17.766Z,73.46
2022-10-21T15:03:51.953Z,74.34
2022-10-21T15:06:25.851Z,74.16
2022-10-21T15:09:17.062Z,75.31
2022-10-21T15:11:49.554Z,75.20
2022-10-21T15:14:28.735Z,75.29
2022-10-21T15:17:03.922Z,75.15
2022-10-21T15:19:45.837Z,75.11
2022-10-21T15:22:30.960Z,74.67
2022-10-21T15:25:08.987Z,75.81
2022-10-21T15:27:44.337Z,75.34
2022-10-21T15:30:21.471Z,75.08
2022-10-21T15:32:55.178Z,75.62
2022-10-21T15:35:26.944Z,75.35
2022-10-21T15:37:58.632Z,75.58
2022-10-21T15:40:32.842Z,75.21
2022-10-21T15:43:05.031Z,75.49
2022-10-21T15:45:36.750Z,75.70
2022-10-21T15:48:12.611Z,75.07
2022-10-21T15:50:44.636Z,76.15
2022-10-21T15:53:16.539Z,75.69
2022-10-21T15:55:48.922Z,76.17
2022-10-21T15:58:20.726Z,76.42
2022-10-21T16:00:53.418Z,76.25
2022-10-21T16:03:24.014Z,76.45
2022-10-21T16:05:55.726Z,76.97
2022-10-21T16:08:27.772Z,77.67
2022-10-21T16:10:59.700Z,77.17
2022-10-21T16:13:31.697Z,77.75
2022-10-21T16:16:05.122Z,77.56
2022-10-21T16:18:36.913Z,77.34
2022-10-21T16:21:10.093Z,77.47
2022-10-21T16:23:42.434Z,77.48
2022-10-21T16:26:20.650Z,77.77
2022-10-21T16:28:53.629Z,77.27
2022-10-21T16:31:27.760Z,78.05
2022-10-21T16:33:59.601Z,76.87
2022-10-21T16:36:36.902Z,77.92
2022-10-21T16:39:14.621Z,77.66
2022-10-21T16:41:46.422Z,81.22
2022-10-21T16:44:18.872Z,82.82
2022-10-21T16:46:53.442Z,83.03
2022-10-21T16:49:28.035Z,82.96
2022-10-21T16:52:00.923Z,87.83
2022-10-21T16:54:34.215Z,78.63
2022-10-21T16:57:06.939Z,81.08
2022-10-21T16:59:39.003Z,83.89
2022-10-21T17:02:17.278Z,81.91
2022-10-21T17:04:49.183Z,84.42
2022-10-21T17:07:20.985Z,80.80
2022-10-21T17:09:52.912Z,81.91
2022-10-21T17:12:25.950Z,80.13
2022-10-21T17:14:57.805Z,79.92
2022-10-21T17:17:29.749Z,79.68
2022-10-21T17:20:01.492Z,77.30
2022-10-21T17:22:33.627Z,77.41
2022-10-21T17:25:05.907Z,77.18
2022-10-21T17:27:37.822Z,77.90
2022-10-21T17:30:12.370Z,78.28
2022-10-21T17:32:44.463Z,78.80
2022-10-21T17:35:19.791Z,78.90
2022-10-21T17:37:52.911Z,79.12
2022-10-21T17:40:26.884Z,79.52
2022-10-21T17:42:59.231Z,79.44
2022-10-21T17:45:31.116Z,79.04
2022-10-21T17:48:03.710Z,78.81
2022-10-21T17:50:36.631Z,78.92
2022-10-21T17:53:08.804Z,78.98
2022-10-21T17:55:40.625Z,78.70
2022-10-21T17:58:12.476Z,79.23
2022-10-21T18:00:44.821Z,79.23
2022-10-21T18:03:18.291Z,80.84
2022-10-21T18:05:50.804Z,79.13
2022-10-21T18:08:22.859Z,78.22
2022-10-21T18:10:56.322Z,77.87
2022-10-21T18:13:30.538Z,77.96
2022-10-21T18:16:17.434Z,78.02
2022-10-21T18:18:49.861Z,78.28
2022-10-21T18:21:24.190Z,78.43
2022-10-21T18:23:57.152Z,78.85
2022-10-21T18:26:30.892Z,78.87
2022-10-21T18:29:05.870Z,78.77
2022-10-21T18:31:38.767Z,79.00
2022-10-21T18:34:12.855Z,78.92
2022-10-21T18:36:45.249Z,79.05
2022-10-21T18:39:17.179Z,79.36
2022-10-21T18:41:49.359Z,79.45
2022-10-21T18:44:21.231Z,79.60
2022-10-21T18:46:55.939Z,79.72
2022-10-21T18:49:28.371Z,79.71
2022-10-21T18:52:00.592Z,79.93
2022-10-21T18:54:32.807Z,80.04
2022-10-21T18:57:07.774Z,80.40
2022-10-21T18:59:40.017Z,80.65
2022-10-21T19:02:17.995Z,81.12
2022-10-21T19:04:50.558Z,81.80
2022-10-21T19:07:23.097Z,82.60
2022-10-21T19:09:55.004Z,83.23
2022-10-21T19:12:27.112Z,84.24
2022-10-21T19:14:59.453Z,85.21
2022-10-21T19:17:32.623Z,85.64
2022-10-21T19:20:05.098Z,86.45
2022-10-21T19:22:35.889Z,87.20
2022-10-21T19:25:09.877Z,88.02
2022-10-21T19:27:42.091Z,88.87
2022-10-21T19:30:15.175Z,89.47
2022-10-21T19:32:47.202Z,89.74
2022-10-21T19:35:20.113Z,89.93
2022-10-21T19:37:52.594Z,90.14
2022-10-21T19:40:25.250Z,90.24
2022-10-21T19:42:58.307Z,90.59
2022-10-21T19:45:30.422Z,90.96
2022-10-21T19:48:03.422Z,91.42
2022-10-21T19:50:37.498Z,91.68
2022-10-21T19:53:09.662Z,91.91
2022-10-21T19:55:41.668Z,92.48
2022-10-21T19:58:13.617Z,92.43
2022-10-21T20:00:45.556Z,92.56
2022-10-21T20:03:18.515Z,92.64
2022-10-21T20:05:50.742Z,92.57
2022-10-21T20:08:22.729Z,92.84
2022-10-21T20:11:12.521Z,93.35
2022-10-21T20:13:46.060Z,93.49
2022-10-21T20:16:21.660Z,93.91
2022-10-21T20:18:56.702Z,94.46
2022-10-21T20:21:28.783Z,94.85
2022-10-21T20:24:02.008Z,95.19
2022-10-21T20:26:34.871Z,95.66
2022-10-21T20:29:06.940Z,96.39
2022-10-21T20:31:38.938Z,96.27
2022-10-21T20:34:14.539Z,96.91
2022-10-21T20:36:47.235Z,96.90
2022-10-21T20:39:19.089Z,96.99
2022-10-21T20:41:51.014Z,97.21
2022-10-21T20:44:22.904Z,97.77
2022-10-21T20:46:54.708Z,98.17
2022-10-21T20:49:26.649Z,98.56
2022-10-21T20:51:58.604Z,98.93
2022-10-21T20:54:31.408Z,99.24
2022-10-21T20:57:01.929Z,99.20
2022-10-21T20:59:36.461Z,99.92
2022-10-21T21:02:10.449Z,99.93
2022-10-21T21:04:42.120Z,99.98
2022-10-21T21:07:14.910Z,100.00
2022-10-21T21:10:03.449Z,100.00
2022-10-21T21:12:35.503Z,100.00
2022-10-21T21:15:09.326Z,100.00
2022-10-21T21:17:40.931Z,100.00
2022-10-21T21:20:13.379Z,100.00
2022-10-21T21:22:45.262Z,100.00
2022-10-21T21:25:16.906Z,100.00
2022-10-21T21:27:48.742Z,100.00
2022-10-21T21:30:20.535Z,100.00
2022-10-21T21:32:52.359Z,100.00
2022-10-21T21:35:24.354Z,100.00
2022-10-21T21:37:56.131Z,100.00
2022-10-21T21:40:29.237Z,100.00
2022-10-21T21:43:00.831Z,100.00
2022-10-21T21:45:32.466Z,100.00
2022-10-21T21:48:04.317Z,100.00
2022-10-21T21:50:36.148Z,100.00
2022-10-21T21:53:08.779Z,100.00
2022-10-21T21:55:40.560Z,100.00
2022-10-21T21:58:12.747Z,100.00
2022-10-21T22:00:44.358Z,100.00
2022-10-21T22:03:16.053Z,100.00
2022-10-21T22:05:47.921Z,100.00
2022-10-21T22:08:19.490Z,100.00
2022-10-21T22:10:51.119Z,100.00
2022-10-21T22:13:22.730Z,100.00
2022-10-21T22:15:54.331Z,100.00
2022-10-21T22:18:26.180Z,100.00
2022-10-21T22:21:01.290Z,100.00
2022-10-21T22:23:33.151Z,100.00
2022-10-21T22:26:05.240Z,100.00
2022-10-21T22:28:36.852Z,100.00
2022-10-21T22:31:11.168Z,100.00
2022-10-21T22:36:21.444Z,100.00
2022-10-21T22:38:53.466Z,100.00
2022-10-21T22:41:25.093Z,100.00
2022-10-21T22:43:56.693Z,100.00
2022-10-21T22:46:33.958Z,100.00
2022-10-21T22:49:07.223Z,100.00
2022-10-21T22:51:38.800Z,100.00
2022-10-21T22:54:24.293Z,100.00
2022-10-21T22:57:03.619Z,100.00
2022-10-21T22:59:37.054Z,100.00
2022-10-21T23:02:09.280Z,100.00
2022-10-21T23:04:40.866Z,100.00
2022-10-21T23:07:12.507Z,100.00
2022-10-21T23:09:44.188Z,100.00
2022-10-21T23:12:16.787Z,100.00
2022-10-21T23:14:48.539Z,100.00
2022-10-21T23:17:20.190Z,100.00
2022-10-21T23:19:51.780Z,100.00
2022-10-21T23:22:23.587Z,100.00
2022-10-21T23:24:55.210Z,100.00
2022-10-21T23:27:28.076Z,100.00
2022-10-21T23:29:59.783Z,100.00
2022-10-21T23:32:31.425Z,100.00
2022-10-21T23:35:03.267Z,100.00
2022-10-21T23:37:35.052Z,100.00
2022-10-21T23:40:08.290Z,100.00
2022-10-21T23:42:42.843Z,100.00
2022-10-21T23:45:14.882Z,100.00
2022-10-21T23:47:46.496Z,100.00
2022-10-21T23:50:18.820Z,100.00
2022-10-21T23:52:50.530Z,100.00
2022-10-21T23:55:22.462Z,100.00
2022-10-21T23:57:54.096Z,100.00
